首页
METAR-TAF:

METAR-TAF

机场 :

Edmonton/Villeneuve Airport

Villeneuve, 艾伯塔, 加拿大

纬度: 53-40-06N, 经度: 113-51-08W, 海拔: 688米

当前天气观测

该预报发布于1小时和2分钟前的15:00 UTC
风速13节,风向南转南东,有时为18节阵风
温度 10°C
湿度 82%
气压 1010 hPa
能見度: 14.5公里
天空无云

METAR: CZVL 231500Z AUTO 16013G18KT 9SM CLR 10/07 A2983 RMK SLP112

时间: 10:02 (16:02 UTC)

预报

该预报发布于4小时和24分钟前的11:38 UTC
预报有效从23日的 12点(UTC)到 23日的 24点(UTC)
风速6节,风向南转南东
能見度: 10公里
少量云层高于24000英尺
成为
从 23日的 16点(UTC)到 23日的 18点(UTC)
风速12节,风向南转南东,有时为22节阵风

TAF: CZVL 231138Z 2312/2324 15006KT P6SM FEW240 BECMG 2316/2318 16012G22KT RMK FCST BASED ON AUTO OBS. NXT FCST BY 231800Z

超过4000个机场的气象观测和天气预报(METAR&TAF报告)。

可查询的气象台以黄色和红色小点在地图上表示。

将鼠标移到小点上方,可查看气象台名称。

然后点击查看天气观测和预报。

如需切换地图:点击带黑十字的绿色按钮放大地图;点击带横线的绿色按钮缩小地图;或者点击绿色箭头查看邻近地区的地图。


METAR-TAF: